sensor_id;sensor_type;location;lat;lon;timestamp;P1;durP1;ratioP1;P2;durP2;ratioP2
32319;SDS011;19080;51.750;5.888;2023-03-08T00:01:13;23.13;;;15.75;;
32319;SDS011;19080;51.750;5.888;2023-03-08T00:03:41;24.83;;;16.17;;
32319;SDS011;19080;51.750;5.888;2023-03-08T00:06:10;29.00;;;16.55;;
32319;SDS011;19080;51.750;5.888;2023-03-08T00:08:39;23.05;;;16.50;;
32319;SDS011;19080;51.750;5.888;2023-03-08T00:11:07;24.38;;;16.27;;
32319;SDS011;19080;51.750;5.888;2023-03-08T00:13:34;88.70;;;18.45;;
32319;SDS011;19080;51.750;5.888;2023-03-08T00:16:04;22.85;;;16.42;;
32319;SDS011;19080;51.750;5.888;2023-03-08T00:18:37;25.05;;;16.77;;
32319;SDS011;19080;51.750;5.888;2023-03-08T00:21:05;45.88;;;18.10;;
32319;SDS011;19080;51.750;5.888;2023-03-08T00:23:43;21.40;;;14.65;;
32319;SDS011;19080;51.750;5.888;2023-03-08T00:26:11;20.10;;;13.50;;
32319;SDS011;19080;51.750;5.888;2023-03-08T00:28:38;20.38;;;13.15;;
32319;SDS011;19080;51.750;5.888;2023-03-08T00:31:06;24.58;;;12.65;;
32319;SDS011;19080;51.750;5.888;2023-03-08T00:33:34;17.45;;;11.57;;
32319;SDS011;19080;51.750;5.888;2023-03-08T00:36:12;15.23;;;11.07;;
32319;SDS011;19080;51.750;5.888;2023-03-08T00:38:41;15.45;;;11.05;;
32319;SDS011;19080;51.750;5.888;2023-03-08T00:41:08;14.70;;;10.98;;
32319;SDS011;19080;51.750;5.888;2023-03-08T00:43:36;16.42;;;10.85;;
32319;SDS011;19080;51.750;5.888;2023-03-08T00:46:03;25.40;;;12.90;;
32319;SDS011;19080;51.750;5.888;2023-03-08T00:48:30;18.70;;;13.30;;
32319;SDS011;19080;51.750;5.888;2023-03-08T00:50:57;18.90;;;13.45;;
32319;SDS011;19080;51.750;5.888;2023-03-08T00:53:24;14.57;;;10.93;;
32319;SDS011;19080;51.750;5.888;2023-03-08T00:55:52;14.55;;;10.95;;
32319;SDS011;19080;51.750;5.888;2023-03-08T00:58:21;16.38;;;10.80;;
32319;SDS011;19080;51.750;5.888;2023-03-08T01:00:50;16.55;;;11.23;;
32319;SDS011;19080;51.750;5.888;2023-03-08T01:03:17;16.52;;;11.23;;
32319;SDS011;19080;51.750;5.888;2023-03-08T01:05:45;16.13;;;11.38;;
32319;SDS011;19080;51.750;5.888;2023-03-08T01:08:14;15.80;;;11.38;;
32319;SDS011;19080;51.750;5.888;2023-03-08T01:10:48;18.45;;;12.48;;
32319;SDS011;19080;51.750;5.888;2023-03-08T01:13:19;18.00;;;12.43;;
32319;SDS011;19080;51.750;5.888;2023-03-08T01:15:46;19.30;;;12.93;;
32319;SDS011;19080;51.750;5.888;2023-03-08T01:18:13;16.95;;;11.45;;
32319;SDS011;19080;51.750;5.888;2023-03-08T01:20:40;16.40;;;11.45;;
32319;SDS011;19080;51.750;5.888;2023-03-08T01:23:06;19.92;;;13.18;;
32319;SDS011;19080;51.750;5.888;2023-03-08T01:25:33;21.13;;;14.55;;
32319;SDS011;19080;51.750;5.888;2023-03-08T01:28:00;23.38;;;15.73;;
32319;SDS011;19080;51.750;5.888;2023-03-08T01:30:27;21.73;;;15.38;;
32319;SDS011;19080;51.750;5.888;2023-03-08T01:32:53;20.42;;;14.73;;
32319;SDS011;19080;51.750;5.888;2023-03-08T01:35:20;22.88;;;16.10;;
32319;SDS011;19080;51.750;5.888;2023-03-08T01:37:49;25.10;;;15.10;;
32319;SDS011;19080;51.750;5.888;2023-03-08T01:40:19;27.15;;;16.33;;
32319;SDS011;19080;51.750;5.888;2023-03-08T01:42:46;22.48;;;14.63;;
32319;SDS011;19080;51.750;5.888;2023-03-08T01:48:18;25.42;;;16.40;;
32319;SDS011;19080;51.750;5.888;2023-03-08T01:51:02;27.27;;;17.00;;
32319;SDS011;19080;51.750;5.888;2023-03-08T01:53:31;30.88;;;18.50;;
32319;SDS011;19080;51.750;5.888;2023-03-08T01:55:58;25.92;;;17.05;;
32319;SDS011;19080;51.750;5.888;2023-03-08T01:58:26;29.13;;;18.85;;
32319;SDS011;19080;51.750;5.888;2023-03-08T02:00:52;34.03;;;18.95;;
32319;SDS011;19080;51.750;5.888;2023-03-08T02:03:19;25.98;;;17.17;;
32319;SDS011;19080;51.750;5.888;2023-03-08T02:05:46;28.75;;;16.35;;
32319;SDS011;19080;51.750;5.888;2023-03-08T02:08:18;27.35;;;18.17;;
32319;SDS011;19080;51.750;5.888;2023-03-08T02:10:45;28.77;;;19.00;;
32319;SDS011;19080;51.750;5.888;2023-03-08T02:13:14;34.22;;;21.38;;
32319;SDS011;19080;51.750;5.888;2023-03-08T02:15:42;27.75;;;18.63;;
32319;SDS011;19080;51.750;5.888;2023-03-08T02:18:10;26.83;;;17.88;;
32319;SDS011;19080;51.750;5.888;2023-03-08T02:20:37;35.47;;;21.67;;
32319;SDS011;19080;51.750;5.888;2023-03-08T02:23:27;37.10;;;21.58;;
32319;SDS011;19080;51.750;5.888;2023-03-08T02:25:57;36.13;;;22.33;;
32319;SDS011;19080;51.750;5.888;2023-03-08T02:28:28;35.72;;;22.65;;
32319;SDS011;19080;51.750;5.888;2023-03-08T02:30:56;34.35;;;21.77;;
32319;SDS011;19080;51.750;5.888;2023-03-08T02:33:23;37.33;;;23.13;;
32319;SDS011;19080;51.750;5.888;2023-03-08T02:35:49;37.42;;;22.73;;
32319;SDS011;19080;51.750;5.888;2023-03-08T02:38:17;37.53;;;23.20;;
32319;SDS011;19080;51.750;5.888;2023-03-08T02:40:45;37.58;;;22.80;;
32319;SDS011;19080;51.750;5.888;2023-03-08T02:43:11;40.80;;;23.50;;
32319;SDS011;19080;51.750;5.888;2023-03-08T02:45:38;41.92;;;25.33;;
32319;SDS011;19080;51.750;5.888;2023-03-08T02:48:06;39.78;;;23.67;;
32319;SDS011;19080;51.750;5.888;2023-03-08T02:50:33;38.17;;;24.15;;
32319;SDS011;19080;51.750;5.888;2023-03-08T02:53:02;47.28;;;25.55;;
32319;SDS011;19080;51.750;5.888;2023-03-08T02:55:31;40.70;;;25.25;;
32319;SDS011;19080;51.750;5.888;2023-03-08T02:58:06;40.95;;;25.45;;
32319;SDS011;19080;51.750;5.888;2023-03-08T03:00:35;41.30;;;24.73;;
32319;SDS011;19080;51.750;5.888;2023-03-08T03:03:03;43.33;;;26.55;;
32319;SDS011;19080;51.750;5.888;2023-03-08T03:05:30;45.60;;;25.70;;
32319;SDS011;19080;51.750;5.888;2023-03-08T03:07:59;41.38;;;26.13;;
32319;SDS011;19080;51.750;5.888;2023-03-08T03:10:27;39.28;;;24.27;;
32319;SDS011;19080;51.750;5.888;2023-03-08T03:12:54;38.45;;;23.95;;
32319;SDS011;19080;51.750;5.888;2023-03-08T03:15:24;43.33;;;26.98;;
32319;SDS011;19080;51.750;5.888;2023-03-08T03:17:55;45.83;;;27.60;;
32319;SDS011;19080;51.750;5.888;2023-03-08T03:20:22;45.85;;;26.80;;
32319;SDS011;19080;51.750;5.888;2023-03-08T03:22:49;44.58;;;27.27;;
32319;SDS011;19080;51.750;5.888;2023-03-08T03:25:17;42.63;;;25.83;;
32319;SDS011;19080;51.750;5.888;2023-03-08T03:27:46;39.80;;;23.80;;
32319;SDS011;19080;51.750;5.888;2023-03-08T03:30:13;38.40;;;23.25;;
32319;SDS011;19080;51.750;5.888;2023-03-08T03:32:41;45.50;;;27.88;;
32319;SDS011;19080;51.750;5.888;2023-03-08T03:35:08;43.70;;;26.98;;
32319;SDS011;19080;51.750;5.888;2023-03-08T03:37:35;58.10;;;26.33;;
32319;SDS011;19080;51.750;5.888;2023-03-08T03:40:03;42.95;;;26.13;;
32319;SDS011;19080;51.750;5.888;2023-03-08T03:42:31;47.35;;;27.67;;
32319;SDS011;19080;51.750;5.888;2023-03-08T03:45:04;42.20;;;25.80;;
32319;SDS011;19080;51.750;5.888;2023-03-08T03:47:31;47.03;;;26.85;;
32319;SDS011;19080;51.750;5.888;2023-03-08T03:50:02;46.90;;;26.83;;
32319;SDS011;19080;51.750;5.888;2023-03-08T03:52:38;50.10;;;27.95;;
32319;SDS011;19080;51.750;5.888;2023-03-08T03:55:05;44.58;;;25.55;;
32319;SDS011;19080;51.750;5.888;2023-03-08T03:57:32;49.00;;;28.10;;
32319;SDS011;19080;51.750;5.888;2023-03-08T04:00:00;46.78;;;27.20;;
32319;SDS011;19080;51.750;5.888;2023-03-08T04:02:27;43.30;;;25.33;;
32319;SDS011;19080;51.750;5.888;2023-03-08T04:04:57;50.63;;;28.35;;
32319;SDS011;19080;51.750;5.888;2023-03-08T04:07:27;50.17;;;29.23;;
32319;SDS011;19080;51.750;5.888;2023-03-08T04:09:59;50.63;;;28.33;;
32319;SDS011;19080;51.750;5.888;2023-03-08T04:12:25;47.90;;;27.42;;
32319;SDS011;19080;51.750;5.888;2023-03-08T04:14:54;53.00;;;28.30;;
32319;SDS011;19080;51.750;5.888;2023-03-08T04:17:22;49.10;;;27.55;;
32319;SDS011;19080;51.750;5.888;2023-03-08T04:19:51;49.55;;;28.90;;
32319;SDS011;19080;51.750;5.888;2023-03-08T04:22:19;49.83;;;27.33;;
32319;SDS011;19080;51.750;5.888;2023-03-08T04:24:51;48.42;;;27.65;;
32319;SDS011;19080;51.750;5.888;2023-03-08T04:27:23;47.60;;;26.85;;
32319;SDS011;19080;51.750;5.888;2023-03-08T04:29:51;48.28;;;28.17;;
32319;SDS011;19080;51.750;5.888;2023-03-08T04:32:18;55.65;;;31.65;;
32319;SDS011;19080;51.750;5.888;2023-03-08T04:34:49;59.53;;;32.22;;
32319;SDS011;19080;51.750;5.888;2023-03-08T04:37:20;46.20;;;26.48;;
32319;SDS011;19080;51.750;5.888;2023-03-08T04:39:51;50.60;;;28.00;;
32319;SDS011;19080;51.750;5.888;2023-03-08T04:42:18;47.10;;;27.98;;
32319;SDS011;19080;51.750;5.888;2023-03-08T04:44:45;52.20;;;28.25;;
32319;SDS011;19080;51.750;5.888;2023-03-08T04:47:16;54.90;;;29.33;;
32319;SDS011;19080;51.750;5.888;2023-03-08T04:49:44;55.60;;;31.00;;
32319;SDS011;19080;51.750;5.888;2023-03-08T04:52:11;48.47;;;27.48;;
32319;SDS011;19080;51.750;5.888;2023-03-08T04:54:39;57.20;;;30.13;;
32319;SDS011;19080;51.750;5.888;2023-03-08T04:57:17;55.97;;;29.70;;
32319;SDS011;19080;51.750;5.888;2023-03-08T04:59:47;52.58;;;29.00;;
32319;SDS011;19080;51.750;5.888;2023-03-08T05:02:13;48.95;;;28.13;;
32319;SDS011;19080;51.750;5.888;2023-03-08T05:04:41;53.35;;;29.85;;
32319;SDS011;19080;51.750;5.888;2023-03-08T05:07:08;50.17;;;27.95;;
32319;SDS011;19080;51.750;5.888;2023-03-08T05:09:35;46.70;;;27.15;;
32319;SDS011;19080;51.750;5.888;2023-03-08T05:12:02;47.90;;;28.60;;
32319;SDS011;19080;51.750;5.888;2023-03-08T05:14:43;48.85;;;27.58;;
32319;SDS011;19080;51.750;5.888;2023-03-08T05:17:10;43.60;;;26.10;;
32319;SDS011;19080;51.750;5.888;2023-03-08T05:19:37;46.00;;;27.77;;
32319;SDS011;19080;51.750;5.888;2023-03-08T05:22:05;44.50;;;25.08;;
32319;SDS011;19080;51.750;5.888;2023-03-08T05:24:36;46.67;;;24.73;;
32319;SDS011;19080;51.750;5.888;2023-03-08T05:27:07;46.55;;;26.00;;
32319;SDS011;19080;51.750;5.888;2023-03-08T05:29:34;40.67;;;25.15;;
32319;SDS011;19080;51.750;5.888;2023-03-08T05:32:03;42.28;;;25.73;;
32319;SDS011;19080;51.750;5.888;2023-03-08T05:34:32;41.83;;;25.10;;
32319;SDS011;19080;51.750;5.888;2023-03-08T05:36:59;42.30;;;25.40;;
32319;SDS011;19080;51.750;5.888;2023-03-08T05:39:27;47.92;;;26.05;;
32319;SDS011;19080;51.750;5.888;2023-03-08T05:42:01;45.10;;;26.20;;
32319;SDS011;19080;51.750;5.888;2023-03-08T05:44:35;39.88;;;23.73;;
32319;SDS011;19080;51.750;5.888;2023-03-08T05:47:03;41.60;;;24.92;;
32319;SDS011;19080;51.750;5.888;2023-03-08T05:49:30;43.20;;;25.85;;
32319;SDS011;19080;51.750;5.888;2023-03-08T05:51:57;38.33;;;23.60;;
32319;SDS011;19080;51.750;5.888;2023-03-08T05:54:25;41.35;;;24.55;;
32319;SDS011;19080;51.750;5.888;2023-03-08T05:56:55;42.58;;;25.52;;
32319;SDS011;19080;51.750;5.888;2023-03-08T05:59:24;41.55;;;23.85;;
32319;SDS011;19080;51.750;5.888;2023-03-08T06:01:54;42.75;;;24.52;;
32319;SDS011;19080;51.750;5.888;2023-03-08T06:04:31;38.00;;;22.60;;
32319;SDS011;19080;51.750;5.888;2023-03-08T06:06:58;41.88;;;25.05;;
32319;SDS011;19080;51.750;5.888;2023-03-08T06:09:31;43.30;;;25.60;;
32319;SDS011;19080;51.750;5.888;2023-03-08T06:11:58;44.30;;;26.50;;
32319;SDS011;19080;51.750;5.888;2023-03-08T06:14:24;40.35;;;24.55;;
32319;SDS011;19080;51.750;5.888;2023-03-08T06:16:51;41.97;;;26.15;;
32319;SDS011;19080;51.750;5.888;2023-03-08T06:19:22;41.88;;;25.88;;
32319;SDS011;19080;51.750;5.888;2023-03-08T06:21:51;43.53;;;27.27;;
32319;SDS011;19080;51.750;5.888;2023-03-08T06:24:18;41.80;;;24.77;;
32319;SDS011;19080;51.750;5.888;2023-03-08T06:26:44;40.20;;;24.65;;
32319;SDS011;19080;51.750;5.888;2023-03-08T06:29:14;45.53;;;26.50;;
32319;SDS011;19080;51.750;5.888;2023-03-08T06:31:40;41.13;;;26.20;;
32319;SDS011;19080;51.750;5.888;2023-03-08T06:34:07;40.83;;;24.73;;
32319;SDS011;19080;51.750;5.888;2023-03-08T06:36:34;40.15;;;24.55;;
32319;SDS011;19080;51.750;5.888;2023-03-08T06:39:00;45.03;;;26.17;;
32319;SDS011;19080;51.750;5.888;2023-03-08T06:41:27;44.47;;;26.42;;
32319;SDS011;19080;51.750;5.888;2023-03-08T06:43:57;42.65;;;26.45;;
32319;SDS011;19080;51.750;5.888;2023-03-08T06:46:24;44.53;;;26.55;;
32319;SDS011;19080;51.750;5.888;2023-03-08T06:48:51;50.03;;;28.90;;
32319;SDS011;19080;51.750;5.888;2023-03-08T06:51:19;48.70;;;28.58;;
32319;SDS011;19080;51.750;5.888;2023-03-08T06:53:46;48.35;;;29.10;;
32319;SDS011;19080;51.750;5.888;2023-03-08T06:56:17;45.67;;;26.88;;
32319;SDS011;19080;51.750;5.888;2023-03-08T06:58:44;50.15;;;28.08;;
32319;SDS011;19080;51.750;5.888;2023-03-08T07:01:10;47.72;;;26.63;;
32319;SDS011;19080;51.750;5.888;2023-03-08T07:03:38;43.63;;;26.23;;
32319;SDS011;19080;51.750;5.888;2023-03-08T07:06:06;37.22;;;23.20;;
32319;SDS011;19080;51.750;5.888;2023-03-08T07:08:35;39.50;;;24.80;;
32319;SDS011;19080;51.750;5.888;2023-03-08T07:11:02;39.65;;;24.70;;
32319;SDS011;19080;51.750;5.888;2023-03-08T07:13:29;35.75;;;22.63;;
32319;SDS011;19080;51.750;5.888;2023-03-08T07:15:56;34.90;;;23.40;;
32319;SDS011;19080;51.750;5.888;2023-03-08T07:18:23;35.42;;;22.65;;
32319;SDS011;19080;51.750;5.888;2023-03-08T07:20:56;36.58;;;23.30;;
32319;SDS011;19080;51.750;5.888;2023-03-08T07:23:23;36.13;;;22.05;;
32319;SDS011;19080;51.750;5.888;2023-03-08T07:25:50;34.17;;;22.20;;
32319;SDS011;19080;51.750;5.888;2023-03-08T07:28:18;32.10;;;20.58;;
32319;SDS011;19080;51.750;5.888;2023-03-08T07:30:49;31.65;;;21.10;;
32319;SDS011;19080;51.750;5.888;2023-03-08T07:33:18;24.30;;;16.00;;
32319;SDS011;19080;51.750;5.888;2023-03-08T07:35:45;38.55;;;20.70;;
32319;SDS011;19080;51.750;5.888;2023-03-08T07:38:12;30.00;;;20.23;;
32319;SDS011;19080;51.750;5.888;2023-03-08T07:40:40;29.70;;;20.45;;
32319;SDS011;19080;51.750;5.888;2023-03-08T07:43:07;31.77;;;21.05;;
32319;SDS011;19080;51.750;5.888;2023-03-08T07:45:50;29.75;;;19.20;;
32319;SDS011;19080;51.750;5.888;2023-03-08T07:48:16;27.42;;;19.25;;
32319;SDS011;19080;51.750;5.888;2023-03-08T07:50:43;28.92;;;18.98;;
32319;SDS011;19080;51.750;5.888;2023-03-08T07:53:09;27.98;;;18.63;;
32319;SDS011;19080;51.750;5.888;2023-03-08T07:55:36;23.92;;;17.88;;
32319;SDS011;19080;51.750;5.888;2023-03-08T07:58:03;25.95;;;17.80;;
32319;SDS011;19080;51.750;5.888;2023-03-08T08:00:30;25.20;;;18.50;;
32319;SDS011;19080;51.750;5.888;2023-03-08T08:02:57;26.75;;;19.05;;
32319;SDS011;19080;51.750;5.888;2023-03-08T08:05:23;24.75;;;17.20;;
32319;SDS011;19080;51.750;5.888;2023-03-08T08:07:50;22.05;;;15.82;;
32319;SDS011;19080;51.750;5.888;2023-03-08T08:10:17;22.52;;;15.93;;
32319;SDS011;19080;51.750;5.888;2023-03-08T08:12:44;19.98;;;15.07;;
32319;SDS011;19080;51.750;5.888;2023-03-08T08:15:11;18.85;;;14.18;;
32319;SDS011;19080;51.750;5.888;2023-03-08T08:17:37;22.35;;;13.20;;
32319;SDS011;19080;51.750;5.888;2023-03-08T08:20:04;18.65;;;12.85;;
32319;SDS011;19080;51.750;5.888;2023-03-08T08:22:34;18.95;;;12.85;;
32319;SDS011;19080;51.750;5.888;2023-03-08T08:25:04;20.05;;;13.55;;
32319;SDS011;19080;51.750;5.888;2023-03-08T08:27:32;24.15;;;14.05;;
32319;SDS011;19080;51.750;5.888;2023-03-08T08:29:58;19.38;;;14.00;;
32319;SDS011;19080;51.750;5.888;2023-03-08T08:32:25;17.30;;;13.02;;
32319;SDS011;19080;51.750;5.888;2023-03-08T08:34:52;20.05;;;13.40;;
32319;SDS011;19080;51.750;5.888;2023-03-08T08:37:18;21.33;;;14.45;;
32319;SDS011;19080;51.750;5.888;2023-03-08T08:39:45;20.45;;;14.25;;
32319;SDS011;19080;51.750;5.888;2023-03-08T08:42:11;19.95;;;14.35;;
32319;SDS011;19080;51.750;5.888;2023-03-08T08:44:38;20.88;;;14.02;;
32319;SDS011;19080;51.750;5.888;2023-03-08T08:47:04;22.08;;;15.55;;
32319;SDS011;19080;51.750;5.888;2023-03-08T08:49:31;22.65;;;16.02;;
32319;SDS011;19080;51.750;5.888;2023-03-08T08:51:57;20.40;;;14.85;;
32319;SDS011;19080;51.750;5.888;2023-03-08T08:54:24;19.00;;;14.20;;
32319;SDS011;19080;51.750;5.888;2023-03-08T08:56:51;19.33;;;14.20;;
32319;SDS011;19080;51.750;5.888;2023-03-08T08:59:17;20.05;;;13.07;;
32319;SDS011;19080;51.750;5.888;2023-03-08T09:01:44;18.58;;;13.00;;
32319;SDS011;19080;51.750;5.888;2023-03-08T09:04:11;19.73;;;14.07;;
32319;SDS011;19080;51.750;5.888;2023-03-08T09:06:39;18.95;;;13.40;;
32319;SDS011;19080;51.750;5.888;2023-03-08T09:09:05;20.63;;;14.15;;
32319;SDS011;19080;51.750;5.888;2023-03-08T09:11:32;17.50;;;13.05;;
32319;SDS011;19080;51.750;5.888;2023-03-08T09:14:10;22.55;;;14.07;;
32319;SDS011;19080;51.750;5.888;2023-03-08T09:16:37;19.73;;;13.38;;
32319;SDS011;19080;51.750;5.888;2023-03-08T09:19:04;20.85;;;13.95;;
32319;SDS011;19080;51.750;5.888;2023-03-08T09:21:31;18.85;;;12.65;;
32319;SDS011;19080;51.750;5.888;2023-03-08T09:23:59;15.13;;;10.75;;
32319;SDS011;19080;51.750;5.888;2023-03-08T09:26:29;14.73;;;10.32;;
32319;SDS011;19080;51.750;5.888;2023-03-08T09:28:57;15.45;;;10.32;;
32319;SDS011;19080;51.750;5.888;2023-03-08T09:31:30;12.73;;;9.30;;
32319;SDS011;19080;51.750;5.888;2023-03-08T09:33:58;14.48;;;9.65;;
32319;SDS011;19080;51.750;5.888;2023-03-08T09:36:25;11.30;;;8.30;;
32319;SDS011;19080;51.750;5.888;2023-03-08T09:38:54;14.70;;;8.82;;
32319;SDS011;19080;51.750;5.888;2023-03-08T09:47:13;13.60;;;9.45;;
32319;SDS011;19080;51.750;5.888;2023-03-08T09:49:41;16.10;;;10.20;;
32319;SDS011;19080;51.750;5.888;2023-03-08T09:54:50;14.55;;;10.13;;
32319;SDS011;19080;51.750;5.888;2023-03-08T09:57:22;16.15;;;10.43;;
32319;SDS011;19080;51.750;5.888;2023-03-08T09:59:57;15.38;;;10.95;;
32319;SDS011;19080;51.750;5.888;2023-03-08T10:02:28;15.82;;;10.95;;
32319;SDS011;19080;51.750;5.888;2023-03-08T10:05:06;15.70;;;10.68;;
32319;SDS011;19080;51.750;5.888;2023-03-08T10:10:26;15.77;;;9.52;;
32319;SDS011;19080;51.750;5.888;2023-03-08T10:16:19;13.00;;;8.70;;
32319;SDS011;19080;51.750;5.888;2023-03-08T10:18:49;11.80;;;9.00;;
32319;SDS011;19080;51.750;5.888;2023-03-08T10:23:58;11.10;;;8.13;;
32319;SDS011;19080;51.750;5.888;2023-03-08T10:26:27;10.40;;;7.63;;
32319;SDS011;19080;51.750;5.888;2023-03-08T10:28:54;8.48;;;6.68;;
32319;SDS011;19080;51.750;5.888;2023-03-08T10:31:28;10.07;;;6.93;;
32319;SDS011;19080;51.750;5.888;2023-03-08T10:34:01;7.55;;;6.07;;
32319;SDS011;19080;51.750;5.888;2023-03-08T10:36:32;8.30;;;5.40;;
32319;SDS011;19080;51.750;5.888;2023-03-08T10:39:00;7.82;;;5.82;;
32319;SDS011;19080;51.750;5.888;2023-03-08T10:41:35;8.55;;;6.10;;
32319;SDS011;19080;51.750;5.888;2023-03-08T10:44:28;8.38;;;5.97;;
32319;SDS011;19080;51.750;5.888;2023-03-08T10:52:39;8.10;;;6.57;;
32319;SDS011;19080;51.750;5.888;2023-03-08T10:55:11;9.05;;;6.47;;
32319;SDS011;19080;51.750;5.888;2023-03-08T10:57:50;7.28;;;6.10;;
32319;SDS011;19080;51.750;5.888;2023-03-08T11:02:47;7.38;;;6.20;;
32319;SDS011;19080;51.750;5.888;2023-03-08T11:05:24;7.72;;;6.43;;
32319;SDS011;19080;51.750;5.888;2023-03-08T11:07:56;9.15;;;7.07;;
32319;SDS011;19080;51.750;5.888;2023-03-08T11:10:25;9.45;;;6.72;;
32319;SDS011;19080;51.750;5.888;2023-03-08T11:13:07;12.63;;;7.70;;
32319;SDS011;19080;51.750;5.888;2023-03-08T11:15:56;10.85;;;7.80;;
32319;SDS011;19080;51.750;5.888;2023-03-08T11:21:00;9.95;;;7.47;;
32319;SDS011;19080;51.750;5.888;2023-03-08T11:23:47;10.07;;;7.18;;
32319;SDS011;19080;51.750;5.888;2023-03-08T11:29:18;9.38;;;6.57;;
32319;SDS011;19080;51.750;5.888;2023-03-08T11:38:04;10.52;;;7.20;;
32319;SDS011;19080;51.750;5.888;2023-03-08T11:40:50;11.50;;;7.75;;
32319;SDS011;19080;51.750;5.888;2023-03-08T11:44:23;8.93;;;6.43;;
32319;SDS011;19080;51.750;5.888;2023-03-08T11:50:07;9.65;;;5.70;;
32319;SDS011;19080;51.750;5.888;2023-03-08T11:53:04;8.07;;;5.78;;
32319;SDS011;19080;51.750;5.888;2023-03-08T11:55:45;7.70;;;5.20;;
32319;SDS011;19080;51.750;5.888;2023-03-08T11:58:56;9.55;;;5.82;;
32319;SDS011;19080;51.750;5.888;2023-03-08T12:01:28;8.60;;;5.03;;
32319;SDS011;19080;51.750;5.888;2023-03-08T12:04:05;7.78;;;4.80;;
32319;SDS011;19080;51.750;5.888;2023-03-08T12:06:40;6.95;;;4.15;;
32319;SDS011;19080;51.750;5.888;2023-03-08T12:11:50;8.00;;;4.78;;
32319;SDS011;19080;51.750;5.888;2023-03-08T12:14:26;4.95;;;3.75;;
32319;SDS011;19080;51.750;5.888;2023-03-08T12:19:42;8.32;;;5.82;;
32319;SDS011;19080;51.750;5.888;2023-03-08T12:22:20;6.40;;;4.85;;
32319;SDS011;19080;51.750;5.888;2023-03-08T12:25:20;6.38;;;5.10;;
32319;SDS011;19080;51.750;5.888;2023-03-08T12:28:03;14.60;;;13.20;;
32319;SDS011;19080;51.750;5.888;2023-03-08T12:33:54;5.82;;;5.13;;
32319;SDS011;19080;51.750;5.888;2023-03-08T12:36:34;6.43;;;5.22;;
32319;SDS011;19080;51.750;5.888;2023-03-08T12:39:07;8.27;;;4.95;;
32319;SDS011;19080;51.750;5.888;2023-03-08T12:41:58;5.30;;;4.53;;
32319;SDS011;19080;51.750;5.888;2023-03-08T12:46:56;7.68;;;5.55;;
32319;SDS011;19080;51.750;5.888;2023-03-08T12:49:33;6.25;;;5.32;;
32319;SDS011;19080;51.750;5.888;2023-03-08T12:52:18;6.05;;;5.15;;
32319;SDS011;19080;51.750;5.888;2023-03-08T12:57:30;6.80;;;4.60;;
32319;SDS011;19080;51.750;5.888;2023-03-08T13:00:03;4.95;;;4.47;;
32319;SDS011;19080;51.750;5.888;2023-03-08T13:02:35;6.88;;;5.40;;
32319;SDS011;19080;51.750;5.888;2023-03-08T13:05:03;5.97;;;4.82;;
32319;SDS011;19080;51.750;5.888;2023-03-08T13:07:49;6.60;;;5.18;;
32319;SDS011;19080;51.750;5.888;2023-03-08T13:10:31;5.85;;;5.00;;
32319;SDS011;19080;51.750;5.888;2023-03-08T13:15:45;7.35;;;5.38;;
32319;SDS011;19080;51.750;5.888;2023-03-08T13:18:16;8.95;;;5.82;;
32319;SDS011;19080;51.750;5.888;2023-03-08T13:20:56;6.00;;;5.32;;
32319;SDS011;19080;51.750;5.888;2023-03-08T13:23:41;6.88;;;5.43;;
32319;SDS011;19080;51.750;5.888;2023-03-08T13:29:28;5.85;;;5.28;;
32319;SDS011;19080;51.750;5.888;2023-03-08T13:31:56;7.38;;;5.10;;
32319;SDS011;19080;51.750;5.888;2023-03-08T13:34:25;6.60;;;4.88;;
32319;SDS011;19080;51.750;5.888;2023-03-08T13:36:52;5.25;;;4.75;;
32319;SDS011;19080;51.750;5.888;2023-03-08T13:39:29;7.13;;;5.38;;
32319;SDS011;19080;51.750;5.888;2023-03-08T13:42:07;7.22;;;5.72;;
32319;SDS011;19080;51.750;5.888;2023-03-08T13:44:38;9.27;;;5.70;;
32319;SDS011;19080;51.750;5.888;2023-03-08T13:47:13;7.57;;;5.15;;
32319;SDS011;19080;51.750;5.888;2023-03-08T13:49:45;5.95;;;4.60;;
32319;SDS011;19080;51.750;5.888;2023-03-08T13:52:15;5.75;;;5.03;;
32319;SDS011;19080;51.750;5.888;2023-03-08T13:54:45;6.55;;;4.80;;
32319;SDS011;19080;51.750;5.888;2023-03-08T13:57:16;4.95;;;4.40;;
32319;SDS011;19080;51.750;5.888;2023-03-08T13:59:47;4.80;;;4.20;;
32319;SDS011;19080;51.750;5.888;2023-03-08T14:02:19;6.28;;;4.35;;
32319;SDS011;19080;51.750;5.888;2023-03-08T14:04:50;6.75;;;5.20;;
32319;SDS011;19080;51.750;5.888;2023-03-08T14:07:19;5.32;;;4.65;;
32319;SDS011;19080;51.750;5.888;2023-03-08T14:09:57;3.95;;;3.55;;
32319;SDS011;19080;51.750;5.888;2023-03-08T14:12:25;5.70;;;3.85;;
32319;SDS011;19080;51.750;5.888;2023-03-08T14:14:55;4.82;;;4.32;;
32319;SDS011;19080;51.750;5.888;2023-03-08T14:17:25;5.22;;;3.90;;
32319;SDS011;19080;51.750;5.888;2023-03-08T14:20:37;6.30;;;3.97;;
32319;SDS011;19080;51.750;5.888;2023-03-08T14:22:46;4.60;;;4.20;;
32319;SDS011;19080;51.750;5.888;2023-03-08T14:27:56;4.57;;;3.90;;
32319;SDS011;19080;51.750;5.888;2023-03-08T14:30:24;4.75;;;4.28;;
32319;SDS011;19080;51.750;5.888;2023-03-08T14:33:26;4.07;;;3.72;;
32319;SDS011;19080;51.750;5.888;2023-03-08T14:35:56;5.78;;;4.10;;
32319;SDS011;19080;51.750;5.888;2023-03-08T14:38:26;5.47;;;3.80;;
32319;SDS011;19080;51.750;5.888;2023-03-08T14:40:55;4.22;;;3.83;;
32319;SDS011;19080;51.750;5.888;2023-03-08T14:43:24;6.60;;;4.40;;
32319;SDS011;19080;51.750;5.888;2023-03-08T14:48:27;4.15;;;3.75;;
32319;SDS011;19080;51.750;5.888;2023-03-08T14:50:59;4.82;;;4.35;;
32319;SDS011;19080;51.750;5.888;2023-03-08T14:53:32;5.78;;;4.40;;
32319;SDS011;19080;51.750;5.888;2023-03-08T14:56:01;4.88;;;4.13;;
32319;SDS011;19080;51.750;5.888;2023-03-08T14:58:33;4.70;;;4.30;;
32319;SDS011;19080;51.750;5.888;2023-03-08T15:01:03;4.60;;;4.15;;
32319;SDS011;19080;51.750;5.888;2023-03-08T15:03:30;4.82;;;4.10;;
32319;SDS011;19080;51.750;5.888;2023-03-08T15:06:00;4.80;;;3.83;;
32319;SDS011;19080;51.750;5.888;2023-03-08T15:08:33;3.53;;;3.22;;
32319;SDS011;19080;51.750;5.888;2023-03-08T15:10:59;4.57;;;4.18;;
32319;SDS011;19080;51.750;5.888;2023-03-08T15:13:26;5.55;;;4.00;;
32319;SDS011;19080;51.750;5.888;2023-03-08T15:15:52;4.65;;;4.25;;
32319;SDS011;19080;51.750;5.888;2023-03-08T15:18:19;4.43;;;4.03;;
32319;SDS011;19080;51.750;5.888;2023-03-08T15:20:47;4.13;;;3.83;;
32319;SDS011;19080;51.750;5.888;2023-03-08T15:23:19;5.60;;;5.00;;
32319;SDS011;19080;51.750;5.888;2023-03-08T15:25:49;5.93;;;5.35;;
32319;SDS011;19080;51.750;5.888;2023-03-08T15:28:18;6.22;;;4.63;;
32319;SDS011;19080;51.750;5.888;2023-03-08T15:30:46;8.55;;;5.28;;
32319;SDS011;19080;51.750;5.888;2023-03-08T15:33:13;4.75;;;4.25;;
32319;SDS011;19080;51.750;5.888;2023-03-08T15:35:40;5.93;;;4.82;;
32319;SDS011;19080;51.750;5.888;2023-03-08T15:38:09;6.45;;;5.07;;
32319;SDS011;19080;51.750;5.888;2023-03-08T15:40:39;7.18;;;4.82;;
32319;SDS011;19080;51.750;5.888;2023-03-08T15:43:07;4.78;;;4.30;;
32319;SDS011;19080;51.750;5.888;2023-03-08T15:45:34;5.00;;;4.50;;
32319;SDS011;19080;51.750;5.888;2023-03-08T15:48:01;6.82;;;4.90;;
32319;SDS011;19080;51.750;5.888;2023-03-08T15:50:30;6.20;;;5.25;;
32319;SDS011;19080;51.750;5.888;2023-03-08T15:52:57;6.00;;;4.88;;
32319;SDS011;19080;51.750;5.888;2023-03-08T15:55:25;6.45;;;5.07;;